sensor_id;sensor_type;location;lat;lon;timestamp;temperature;humidity
19242;DHT22;9755;47.790;9.620;2023-04-03T00:02:09;4.10;99.90
19242;DHT22;9755;47.790;9.620;2023-04-03T00:04:36;4.10;99.90
19242;DHT22;9755;47.790;9.620;2023-04-03T00:07:03;4.10;99.90
19242;DHT22;9755;47.790;9.620;2023-04-03T00:09:30;4.10;99.90
19242;DHT22;9755;47.790;9.620;2023-04-03T00:11:58;4.00;99.90
19242;DHT22;9755;47.790;9.620;2023-04-03T00:14:25;4.00;99.90
19242;DHT22;9755;47.790;9.620;2023-04-03T00:16:53;4.00;99.90
19242;DHT22;9755;47.790;9.620;2023-04-03T00:19:20;4.00;99.90
19242;DHT22;9755;47.790;9.620;2023-04-03T00:21:47;4.00;99.90
19242;DHT22;9755;47.790;9.620;2023-04-03T00:24:14;4.00;99.90
19242;DHT22;9755;47.790;9.620;2023-04-03T00:26:41;3.90;99.90
19242;DHT22;9755;47.790;9.620;2023-04-03T00:29:10;3.90;99.90
19242;DHT22;9755;47.790;9.620;2023-04-03T00:31:37;3.80;99.90
19242;DHT22;9755;47.790;9.620;2023-04-03T00:34:04;3.80;99.90
19242;DHT22;9755;47.790;9.620;2023-04-03T00:36:31;3.80;99.90
19242;DHT22;9755;47.790;9.620;2023-04-03T00:38:58;3.70;99.90
19242;DHT22;9755;47.790;9.620;2023-04-03T00:41:25;3.60;99.90
19242;DHT22;9755;47.790;9.620;2023-04-03T00:43:53;3.60;99.90
19242;DHT22;9755;47.790;9.620;2023-04-03T00:46:21;3.50;99.90
19242;DHT22;9755;47.790;9.620;2023-04-03T00:48:48;3.50;99.90
19242;DHT22;9755;47.790;9.620;2023-04-03T00:51:18;3.50;99.90
19242;DHT22;9755;47.790;9.620;2023-04-03T00:53:47;3.50;99.90
19242;DHT22;9755;47.790;9.620;2023-04-03T00:56:17;3.50;99.90
19242;DHT22;9755;47.790;9.620;2023-04-03T00:58:50;3.40;99.90
19242;DHT22;9755;47.790;9.620;2023-04-03T01:01:23;3.40;99.90
19242;DHT22;9755;47.790;9.620;2023-04-03T01:03:50;3.40;99.90
19242;DHT22;9755;47.790;9.620;2023-04-03T01:06:21;3.40;99.90
19242;DHT22;9755;47.790;9.620;2023-04-03T01:08:50;3.40;99.90
19242;DHT22;9755;47.790;9.620;2023-04-03T01:11:17;3.30;99.90
19242;DHT22;9755;47.790;9.620;2023-04-03T01:13:46;3.30;99.90
19242;DHT22;9755;47.790;9.620;2023-04-03T01:16:14;3.30;99.90
19242;DHT22;9755;47.790;9.620;2023-04-03T01:18:43;3.20;99.90
19242;DHT22;9755;47.790;9.620;2023-04-03T01:21:40;3.10;99.90
19242;DHT22;9755;47.790;9.620;2023-04-03T01:24:22;3.10;99.90
19242;DHT22;9755;47.790;9.620;2023-04-03T01:26:52;3.10;99.90
19242;DHT22;9755;47.790;9.620;2023-04-03T01:29:19;3.10;99.90
19242;DHT22;9755;47.790;9.620;2023-04-03T01:31:50;3.10;99.90
19242;DHT22;9755;47.790;9.620;2023-04-03T01:34:17;3.10;99.90
19242;DHT22;9755;47.790;9.620;2023-04-03T01:36:45;3.10;99.90
19242;DHT22;9755;47.790;9.620;2023-04-03T01:39:12;3.00;99.90
19242;DHT22;9755;47.790;9.620;2023-04-03T01:41:39;2.90;99.90
19242;DHT22;9755;47.790;9.620;2023-04-03T01:44:06;2.90;99.90
19242;DHT22;9755;47.790;9.620;2023-04-03T01:46:33;2.80;99.90
19242;DHT22;9755;47.790;9.620;2023-04-03T01:49:02;2.60;99.90
19242;DHT22;9755;47.790;9.620;2023-04-03T01:51:30;2.50;99.90
19242;DHT22;9755;47.790;9.620;2023-04-03T01:53:57;2.40;99.90
19242;DHT22;9755;47.790;9.620;2023-04-03T01:56:24;2.30;99.90
19242;DHT22;9755;47.790;9.620;2023-04-03T01:58:52;2.30;99.90
19242;DHT22;9755;47.790;9.620;2023-04-03T02:01:19;2.20;99.90
19242;DHT22;9755;47.790;9.620;2023-04-03T02:03:46;2.20;99.90
19242;DHT22;9755;47.790;9.620;2023-04-03T02:06:15;2.20;99.90
19242;DHT22;9755;47.790;9.620;2023-04-03T02:08:42;2.20;99.90
19242;DHT22;9755;47.790;9.620;2023-04-03T02:11:09;2.20;99.90
19242;DHT22;9755;47.790;9.620;2023-04-03T02:13:36;2.20;99.90
19242;DHT22;9755;47.790;9.620;2023-04-03T02:16:07;2.20;99.90
19242;DHT22;9755;47.790;9.620;2023-04-03T02:18:34;2.20;99.90
19242;DHT22;9755;47.790;9.620;2023-04-03T02:21:01;2.30;99.90
19242;DHT22;9755;47.790;9.620;2023-04-03T02:23:29;2.40;99.90
19242;DHT22;9755;47.790;9.620;2023-04-03T02:26:06;2.40;99.90
19242;DHT22;9755;47.790;9.620;2023-04-03T02:28:34;2.50;99.90
19242;DHT22;9755;47.790;9.620;2023-04-03T02:31:01;2.60;99.90
19242;DHT22;9755;47.790;9.620;2023-04-03T02:33:29;2.60;99.90
19242;DHT22;9755;47.790;9.620;2023-04-03T02:35:57;2.70;99.90
19242;DHT22;9755;47.790;9.620;2023-04-03T02:38:24;2.70;99.90
19242;DHT22;9755;47.790;9.620;2023-04-03T02:40:53;2.70;99.90
19242;DHT22;9755;47.790;9.620;2023-04-03T02:43:21;2.70;99.90
19242;DHT22;9755;47.790;9.620;2023-04-03T02:45:48;2.70;99.90
19242;DHT22;9755;47.790;9.620;2023-04-03T02:48:15;2.70;99.90
19242;DHT22;9755;47.790;9.620;2023-04-03T02:50:42;2.80;99.90
19242;DHT22;9755;47.790;9.620;2023-04-03T02:53:09;2.70;99.90
19242;DHT22;9755;47.790;9.620;2023-04-03T02:55:36;2.70;99.90
19242;DHT22;9755;47.790;9.620;2023-04-03T02:58:05;2.70;99.90
19242;DHT22;9755;47.790;9.620;2023-04-03T03:00:32;2.60;99.90
19242;DHT22;9755;47.790;9.620;2023-04-03T03:02:59;2.60;99.90
19242;DHT22;9755;47.790;9.620;2023-04-03T03:05:27;2.50;99.90
19242;DHT22;9755;47.790;9.620;2023-04-03T03:07:54;2.50;99.90
19242;DHT22;9755;47.790;9.620;2023-04-03T03:10:22;2.50;99.90
19242;DHT22;9755;47.790;9.620;2023-04-03T03:12:49;2.50;99.90
19242;DHT22;9755;47.790;9.620;2023-04-03T03:15:17;2.50;99.90
19242;DHT22;9755;47.790;9.620;2023-04-03T03:17:45;2.50;99.90
19242;DHT22;9755;47.790;9.620;2023-04-03T03:20:12;2.50;99.90
19242;DHT22;9755;47.790;9.620;2023-04-03T03:22:40;2.50;99.90
19242;DHT22;9755;47.790;9.620;2023-04-03T03:25:08;2.50;99.90
19242;DHT22;9755;47.790;9.620;2023-04-03T03:27:35;2.50;99.90
19242;DHT22;9755;47.790;9.620;2023-04-03T03:30:03;2.60;99.90
19242;DHT22;9755;47.790;9.620;2023-04-03T03:32:32;2.50;99.90
19242;DHT22;9755;47.790;9.620;2023-04-03T03:34:59;2.60;99.90
19242;DHT22;9755;47.790;9.620;2023-04-03T03:37:26;2.60;99.90
19242;DHT22;9755;47.790;9.620;2023-04-03T03:39:53;2.50;99.90
19242;DHT22;9755;47.790;9.620;2023-04-03T03:42:20;2.50;99.90
19242;DHT22;9755;47.790;9.620;2023-04-03T03:44:47;2.50;99.90
19242;DHT22;9755;47.790;9.620;2023-04-03T03:47:14;2.50;99.90
19242;DHT22;9755;47.790;9.620;2023-04-03T03:49:43;2.50;99.90
19242;DHT22;9755;47.790;9.620;2023-04-03T03:52:13;2.50;99.90
19242;DHT22;9755;47.790;9.620;2023-04-03T03:54:40;2.50;99.90
19242;DHT22;9755;47.790;9.620;2023-04-03T03:57:07;2.50;99.90
19242;DHT22;9755;47.790;9.620;2023-04-03T03:59:34;2.60;99.90
19242;DHT22;9755;47.790;9.620;2023-04-03T04:02:01;2.50;99.90
19242;DHT22;9755;47.790;9.620;2023-04-03T04:04:28;2.50;99.90
19242;DHT22;9755;47.790;9.620;2023-04-03T04:06:57;2.50;99.90
19242;DHT22;9755;47.790;9.620;2023-04-03T04:09:26;2.50;99.90
19242;DHT22;9755;47.790;9.620;2023-04-03T04:11:53;2.50;99.90
19242;DHT22;9755;47.790;9.620;2023-04-03T04:14:20;2.50;99.90
19242;DHT22;9755;47.790;9.620;2023-04-03T04:16:47;2.50;99.90
19242;DHT22;9755;47.790;9.620;2023-04-03T04:20:53;2.50;99.90
19242;DHT22;9755;47.790;9.620;2023-04-03T04:22:47;2.50;99.90
19242;DHT22;9755;47.790;9.620;2023-04-03T04:25:14;2.60;99.90
19242;DHT22;9755;47.790;9.620;2023-04-03T04:27:41;2.60;99.90
19242;DHT22;9755;47.790;9.620;2023-04-03T04:30:09;2.60;99.90
19242;DHT22;9755;47.790;9.620;2023-04-03T04:32:36;2.60;99.90
19242;DHT22;9755;47.790;9.620;2023-04-03T04:35:04;2.60;99.90
19242;DHT22;9755;47.790;9.620;2023-04-03T04:37:31;2.60;99.90
19242;DHT22;9755;47.790;9.620;2023-04-03T04:40:00;2.60;99.90
19242;DHT22;9755;47.790;9.620;2023-04-03T04:42:27;2.60;99.90
19242;DHT22;9755;47.790;9.620;2023-04-03T04:44:54;2.60;99.90
19242;DHT22;9755;47.790;9.620;2023-04-03T04:47:21;2.60;99.90
19242;DHT22;9755;47.790;9.620;2023-04-03T04:49:48;2.60;99.90
19242;DHT22;9755;47.790;9.620;2023-04-03T04:52:16;2.60;99.90
19242;DHT22;9755;47.790;9.620;2023-04-03T04:54:43;2.60;99.90
19242;DHT22;9755;47.790;9.620;2023-04-03T04:57:11;2.60;99.90
19242;DHT22;9755;47.790;9.620;2023-04-03T04:59:38;2.60;99.90
19242;DHT22;9755;47.790;9.620;2023-04-03T05:02:06;2.60;99.90
19242;DHT22;9755;47.790;9.620;2023-04-03T05:04:33;2.70;99.90
19242;DHT22;9755;47.790;9.620;2023-04-03T05:07:00;2.70;99.90
19242;DHT22;9755;47.790;9.620;2023-04-03T05:09:27;2.60;99.90
19242;DHT22;9755;47.790;9.620;2023-04-03T05:11:54;2.60;99.90
19242;DHT22;9755;47.790;9.620;2023-04-03T05:14:23;2.70;99.90
19242;DHT22;9755;47.790;9.620;2023-04-03T05:16:53;2.70;99.90
19242;DHT22;9755;47.790;9.620;2023-04-03T05:19:20;2.70;99.90
19242;DHT22;9755;47.790;9.620;2023-04-03T05:21:48;2.70;99.90
19242;DHT22;9755;47.790;9.620;2023-04-03T05:24:15;2.70;99.90
19242;DHT22;9755;47.790;9.620;2023-04-03T05:26:43;2.70;99.90
19242;DHT22;9755;47.790;9.620;2023-04-03T05:29:10;2.70;99.90
19242;DHT22;9755;47.790;9.620;2023-04-03T05:31:38;2.70;99.90
19242;DHT22;9755;47.790;9.620;2023-04-03T05:34:05;2.70;99.90
19242;DHT22;9755;47.790;9.620;2023-04-03T05:36:32;2.80;99.90
19242;DHT22;9755;47.790;9.620;2023-04-03T05:38:59;2.80;99.90
19242;DHT22;9755;47.790;9.620;2023-04-03T05:41:26;2.70;99.90
19242;DHT22;9755;47.790;9.620;2023-04-03T05:43:53;2.80;99.90
19242;DHT22;9755;47.790;9.620;2023-04-03T05:46:20;2.80;99.90
19242;DHT22;9755;47.790;9.620;2023-04-03T05:48:49;2.80;99.90
19242;DHT22;9755;47.790;9.620;2023-04-03T05:51:18;2.80;99.90
19242;DHT22;9755;47.790;9.620;2023-04-03T05:53:47;2.80;99.90
19242;DHT22;9755;47.790;9.620;2023-04-03T05:56:14;2.90;99.90
19242;DHT22;9755;47.790;9.620;2023-04-03T05:58:41;2.90;99.90
19242;DHT22;9755;47.790;9.620;2023-04-03T06:01:08;2.90;99.90
19242;DHT22;9755;47.790;9.620;2023-04-03T06:03:35;2.90;99.90
19242;DHT22;9755;47.790;9.620;2023-04-03T06:06:05;2.90;99.90
19242;DHT22;9755;47.790;9.620;2023-04-03T06:08:33;3.00;99.90
19242;DHT22;9755;47.790;9.620;2023-04-03T06:11:00;3.00;99.90
19242;DHT22;9755;47.790;9.620;2023-04-03T06:13:28;3.10;99.90
19242;DHT22;9755;47.790;9.620;2023-04-03T06:15:55;3.10;99.90
19242;DHT22;9755;47.790;9.620;2023-04-03T06:18:24;3.20;99.90
19242;DHT22;9755;47.790;9.620;2023-04-03T06:20:51;3.20;99.90
19242;DHT22;9755;47.790;9.620;2023-04-03T06:23:22;3.30;99.90
19242;DHT22;9755;47.790;9.620;2023-04-03T06:25:49;3.20;99.90
19242;DHT22;9755;47.790;9.620;2023-04-03T06:28:16;3.20;99.90
19242;DHT22;9755;47.790;9.620;2023-04-03T06:30:44;3.30;99.90
19242;DHT22;9755;47.790;9.620;2023-04-03T06:33:11;3.40;99.90
19242;DHT22;9755;47.790;9.620;2023-04-03T06:35:39;3.30;99.90
19242;DHT22;9755;47.790;9.620;2023-04-03T06:38:06;3.40;99.90
19242;DHT22;9755;47.790;9.620;2023-04-03T06:40:36;3.50;99.90
19242;DHT22;9755;47.790;9.620;2023-04-03T06:43:03;3.50;99.90
19242;DHT22;9755;47.790;9.620;2023-04-03T06:45:31;3.60;99.90
19242;DHT22;9755;47.790;9.620;2023-04-03T06:47:58;3.60;99.90
19242;DHT22;9755;47.790;9.620;2023-04-03T06:50:25;3.70;99.90
19242;DHT22;9755;47.790;9.620;2023-04-03T06:52:52;3.70;99.90
19242;DHT22;9755;47.790;9.620;2023-04-03T06:55:19;3.90;99.90
19242;DHT22;9755;47.790;9.620;2023-04-03T06:57:48;3.90;99.90
19242;DHT22;9755;47.790;9.620;2023-04-03T07:00:16;3.90;99.90
19242;DHT22;9755;47.790;9.620;2023-04-03T07:02:43;3.80;99.90
19242;DHT22;9755;47.790;9.620;2023-04-03T07:05:11;3.90;99.90
19242;DHT22;9755;47.790;9.620;2023-04-03T07:07:38;4.00;99.90
19242;DHT22;9755;47.790;9.620;2023-04-03T07:10:08;3.70;99.90
19242;DHT22;9755;47.790;9.620;2023-04-03T07:12:35;3.70;99.90
19242;DHT22;9755;47.790;9.620;2023-04-03T07:15:06;3.90;99.90
19242;DHT22;9755;47.790;9.620;2023-04-03T07:17:34;3.80;99.90
19242;DHT22;9755;47.790;9.620;2023-04-03T07:20:01;3.90;99.90
19242;DHT22;9755;47.790;9.620;2023-04-03T07:22:29;3.80;99.90
19242;DHT22;9755;47.790;9.620;2023-04-03T07:24:56;4.00;99.90
19242;DHT22;9755;47.790;9.620;2023-04-03T07:27:24;4.10;99.90
19242;DHT22;9755;47.790;9.620;2023-04-03T07:29:51;4.10;99.90
19242;DHT22;9755;47.790;9.620;2023-04-03T07:32:20;4.00;99.90
19242;DHT22;9755;47.790;9.620;2023-04-03T07:34:47;4.20;99.90
19242;DHT22;9755;47.790;9.620;2023-04-03T07:37:14;4.20;99.90
19242;DHT22;9755;47.790;9.620;2023-04-03T07:39:44;4.30;99.90
19242;DHT22;9755;47.790;9.620;2023-04-03T07:42:11;4.20;99.90
19242;DHT22;9755;47.790;9.620;2023-04-03T07:44:38;4.40;99.90
19242;DHT22;9755;47.790;9.620;2023-04-03T07:47:06;4.50;99.90
19242;DHT22;9755;47.790;9.620;2023-04-03T07:49:34;4.60;99.90
19242;DHT22;9755;47.790;9.620;2023-04-03T07:52:03;4.60;99.90
19242;DHT22;9755;47.790;9.620;2023-04-03T07:54:31;4.60;99.90
19242;DHT22;9755;47.790;9.620;2023-04-03T07:56:58;4.90;99.90
19242;DHT22;9755;47.790;9.620;2023-04-03T07:59:26;4.80;99.90
19242;DHT22;9755;47.790;9.620;2023-04-03T08:01:53;4.90;99.90
19242;DHT22;9755;47.790;9.620;2023-04-03T08:04:20;4.60;99.90
19242;DHT22;9755;47.790;9.620;2023-04-03T08:06:48;4.70;99.90
19242;DHT22;9755;47.790;9.620;2023-04-03T08:09:16;4.80;99.90
19242;DHT22;9755;47.790;9.620;2023-04-03T08:11:43;4.90;99.90
19242;DHT22;9755;47.790;9.620;2023-04-03T08:14:10;4.90;99.90
19242;DHT22;9755;47.790;9.620;2023-04-03T08:16:42;5.20;99.90
19242;DHT22;9755;47.790;9.620;2023-04-03T08:19:09;5.20;99.90
19242;DHT22;9755;47.790;9.620;2023-04-03T08:21:37;5.30;99.90
19242;DHT22;9755;47.790;9.620;2023-04-03T08:24:05;5.50;99.90
19242;DHT22;9755;47.790;9.620;2023-04-03T08:26:33;5.10;99.90
19242;DHT22;9755;47.790;9.620;2023-04-03T08:29:00;5.30;99.90
19242;DHT22;9755;47.790;9.620;2023-04-03T08:31:27;5.30;99.90
19242;DHT22;9755;47.790;9.620;2023-04-03T08:33:54;5.40;99.90
19242;DHT22;9755;47.790;9.620;2023-04-03T08:36:22;5.50;99.90
19242;DHT22;9755;47.790;9.620;2023-04-03T08:38:51;5.50;99.90
19242;DHT22;9755;47.790;9.620;2023-04-03T08:41:27;5.50;99.90
19242;DHT22;9755;47.790;9.620;2023-04-03T08:44:01;5.50;99.90
19242;DHT22;9755;47.790;9.620;2023-04-03T08:46:39;5.50;99.90
19242;DHT22;9755;47.790;9.620;2023-04-03T08:49:11;5.70;99.90
19242;DHT22;9755;47.790;9.620;2023-04-03T08:51:46;5.90;99.90
19242;DHT22;9755;47.790;9.620;2023-04-03T08:54:21;5.90;99.90
19242;DHT22;9755;47.790;9.620;2023-04-03T08:56:52;6.00;99.90
19242;DHT22;9755;47.790;9.620;2023-04-03T08:59:25;6.10;99.90
19242;DHT22;9755;47.790;9.620;2023-04-03T09:01:53;5.80;99.90
19242;DHT22;9755;47.790;9.620;2023-04-03T09:04:21;5.80;99.90
19242;DHT22;9755;47.790;9.620;2023-04-03T09:06:52;6.30;99.90
19242;DHT22;9755;47.790;9.620;2023-04-03T09:09:31;6.10;99.90
19242;DHT22;9755;47.790;9.620;2023-04-03T09:12:06;6.30;99.90
19242;DHT22;9755;47.790;9.620;2023-04-03T09:14:39;6.10;99.90
19242;DHT22;9755;47.790;9.620;2023-04-03T09:17:14;6.40;99.90
19242;DHT22;9755;47.790;9.620;2023-04-03T09:19:48;6.80;99.90
19242;DHT22;9755;47.790;9.620;2023-04-03T09:22:21;7.10;99.90
19242;DHT22;9755;47.790;9.620;2023-04-03T09:24:55;7.20;99.90
19242;DHT22;9755;47.790;9.620;2023-04-03T09:27:24;6.40;99.90
19242;DHT22;9755;47.790;9.620;2023-04-03T09:29:54;6.10;99.90
19242;DHT22;9755;47.790;9.620;2023-04-03T09:32:26;6.00;99.90
19242;DHT22;9755;47.790;9.620;2023-04-03T09:34:56;6.00;99.90
19242;DHT22;9755;47.790;9.620;2023-04-03T09:37:39;6.10;99.90
19242;DHT22;9755;47.790;9.620;2023-04-03T09:40:34;6.40;99.90
19242;DHT22;9755;47.790;9.620;2023-04-03T09:43:27;6.20;99.90
19242;DHT22;9755;47.790;9.620;2023-04-03T09:46:16;6.60;99.90
19242;DHT22;9755;47.790;9.620;2023-04-03T09:48:50;6.60;99.90
19242;DHT22;9755;47.790;9.620;2023-04-03T09:51:17;6.70;99.90
19242;DHT22;9755;47.790;9.620;2023-04-03T09:53:45;7.00;99.90
19242;DHT22;9755;47.790;9.620;2023-04-03T09:56:22;7.00;99.90
19242;DHT22;9755;47.790;9.620;2023-04-03T09:59:12;6.60;99.90
19242;DHT22;9755;47.790;9.620;2023-04-03T10:01:43;6.50;99.90
19242;DHT22;9755;47.790;9.620;2023-04-03T10:04:23;6.20;99.90
19242;DHT22;9755;47.790;9.620;2023-04-03T10:06:52;6.20;99.90
19242;DHT22;9755;47.790;9.620;2023-04-03T10:09:22;7.00;99.90
19242;DHT22;9755;47.790;9.620;2023-04-03T10:12:07;7.40;99.90
19242;DHT22;9755;47.790;9.620;2023-04-03T10:14:38;8.60;99.10
19242;DHT22;9755;47.790;9.620;2023-04-03T10:17:16;9.20;96.50
19242;DHT22;9755;47.790;9.620;2023-04-03T10:19:47;9.40;95.40
19242;DHT22;9755;47.790;9.620;2023-04-03T10:22:20;10.20;93.70
19242;DHT22;9755;47.790;9.620;2023-04-03T10:24:55;10.70;91.80
19242;DHT22;9755;47.790;9.620;2023-04-03T10:27:37;10.50;89.70
19242;DHT22;9755;47.790;9.620;2023-04-03T10:30:25;10.20;89.60
19242;DHT22;9755;47.790;9.620;2023-04-03T10:33:01;9.10;90.40
19242;DHT22;9755;47.790;9.620;2023-04-03T10:35:39;8.50;92.50
19242;DHT22;9755;47.790;9.620;2023-04-03T10:38:13;9.30;90.30
19242;DHT22;9755;47.790;9.620;2023-04-03T10:40:50;9.10;89.80
19242;DHT22;9755;47.790;9.620;2023-04-03T10:43:23;8.40;92.40
19242;DHT22;9755;47.790;9.620;2023-04-03T10:45:59;7.80;93.00
19242;DHT22;9755;47.790;9.620;2023-04-03T10:48:37;7.70;92.90
19242;DHT22;9755;47.790;9.620;2023-04-03T10:51:16;7.40;94.30
19242;DHT22;9755;47.790;9.620;2023-04-03T10:53:53;7.50;92.90
19242;DHT22;9755;47.790;9.620;2023-04-03T10:56:30;7.70;93.60
19242;DHT22;9755;47.790;9.620;2023-04-03T10:59:02;8.30;92.10
19242;DHT22;9755;47.790;9.620;2023-04-03T11:01:36;9.50;90.60
19242;DHT22;9755;47.790;9.620;2023-04-03T11:04:06;11.20;77.40
19242;DHT22;9755;47.790;9.620;2023-04-03T11:06:39;11.60;68.70
19242;DHT22;9755;47.790;9.620;2023-04-03T11:09:13;12.10;63.50
19242;DHT22;9755;47.790;9.620;2023-04-03T11:11:43;11.20;65.80
19242;DHT22;9755;47.790;9.620;2023-04-03T11:14:14;10.10;71.30
19242;DHT22;9755;47.790;9.620;2023-04-03T11:16:50;8.90;76.00
19242;DHT22;9755;47.790;9.620;2023-04-03T11:19:22;8.40;80.00
19242;DHT22;9755;47.790;9.620;2023-04-03T11:21:56;8.10;85.10
19242;DHT22;9755;47.790;9.620;2023-04-03T11:24:25;7.30;86.90
19242;DHT22;9755;47.790;9.620;2023-04-03T11:26:55;7.40;88.70
19242;DHT22;9755;47.790;9.620;2023-04-03T11:29:24;7.60;87.20
19242;DHT22;9755;47.790;9.620;2023-04-03T11:32:11;7.90;89.10
19242;DHT22;9755;47.790;9.620;2023-04-03T11:34:44;8.40;85.30
19242;DHT22;9755;47.790;9.620;2023-04-03T11:37:15;8.20;85.00
19242;DHT22;9755;47.790;9.620;2023-04-03T11:39:51;8.10;85.10
19242;DHT22;9755;47.790;9.620;2023-04-03T11:42:33;7.90;84.90
19242;DHT22;9755;47.790;9.620;2023-04-03T11:45:26;7.60;85.80
19242;DHT22;9755;47.790;9.620;2023-04-03T11:47:59;7.70;86.00
19242;DHT22;9755;47.790;9.620;2023-04-03T11:50:40;8.00;85.60
19242;DHT22;9755;47.790;9.620;2023-04-03T11:53:32;8.40;82.80
19242;DHT22;9755;47.790;9.620;2023-04-03T11:56:02;7.80;84.60
19242;DHT22;9755;47.790;9.620;2023-04-03T11:58:31;7.00;86.80
19242;DHT22;9755;47.790;9.620;2023-04-03T12:01:04;6.70;89.10
19242;DHT22;9755;47.790;9.620;2023-04-03T12:03:58;6.40;90.60
19242;DHT22;9755;47.790;9.620;2023-04-03T12:06:59;6.30;91.10
19242;DHT22;9755;47.790;9.620;2023-04-03T12:12:32;6.90;91.10
19242;DHT22;9755;47.790;9.620;2023-04-03T12:15:25;6.90;90.90
19242;DHT22;9755;47.790;9.620;2023-04-03T12:17:53;7.30;90.20
19242;DHT22;9755;47.790;9.620;2023-04-03T12:20:56;7.60;87.90
19242;DHT22;9755;47.790;9.620;2023-04-03T12:23:29;7.80;86.60
19242;DHT22;9755;47.790;9.620;2023-04-03T12:26:03;7.50;87.80
19242;DHT22;9755;47.790;9.620;2023-04-03T12:28:37;7.40;86.10
19242;DHT22;9755;47.790;9.620;2023-04-03T12:31:08;7.30;86.30
19242;DHT22;9755;47.790;9.620;2023-04-03T12:34:01;7.30;86.70
19242;DHT22;9755;47.790;9.620;2023-04-03T12:36:42;7.60;82.20
19242;DHT22;9755;47.790;9.620;2023-04-03T12:39:36;7.60;82.00
19242;DHT22;9755;47.790;9.620;2023-04-03T12:42:19;7.60;80.70
19242;DHT22;9755;47.790;9.620;2023-04-03T12:44:55;7.30;80.60
19242;DHT22;9755;47.790;9.620;2023-04-03T12:47:28;7.30;80.60
19242;DHT22;9755;47.790;9.620;2023-04-03T12:49:59;7.20;80.90
19242;DHT22;9755;47.790;9.620;2023-04-03T12:52:45;7.40;81.90
19242;DHT22;9755;47.790;9.620;2023-04-03T12:55:15;7.30;79.90
19242;DHT22;9755;47.790;9.620;2023-04-03T12:57:43;7.40;80.50
19242;DHT22;9755;47.790;9.620;2023-04-03T13:00:29;7.10;79.70
19242;DHT22;9755;47.790;9.620;2023-04-03T13:02:58;7.40;80.40
19242;DHT22;9755;47.790;9.620;2023-04-03T13:05:25;7.60;78.00
19242;DHT22;9755;47.790;9.620;2023-04-03T13:07:58;7.70;76.80
19242;DHT22;9755;47.790;9.620;2023-04-03T13:10:25;7.80;77.90
19242;DHT22;9755;47.790;9.620;2023-04-03T13:12:55;7.50;83.00
19242;DHT22;9755;47.790;9.620;2023-04-03T13:15:24;7.40;87.80
19242;DHT22;9755;47.790;9.620;2023-04-03T13:17:52;7.20;89.50
19242;DHT22;9755;47.790;9.620;2023-04-03T13:20:23;7.00;90.00
19242;DHT22;9755;47.790;9.620;2023-04-03T13:22:57;7.00;89.20
19242;DHT22;9755;47.790;9.620;2023-04-03T13:25:27;6.90;88.60
19242;DHT22;9755;47.790;9.620;2023-04-03T13:27:59;7.00;88.40
19242;DHT22;9755;47.790;9.620;2023-04-03T13:30:30;6.80;85.50
19242;DHT22;9755;47.790;9.620;2023-04-03T13:32:59;6.60;85.50
19242;DHT22;9755;47.790;9.620;2023-04-03T13:35:37;6.70;84.00
19242;DHT22;9755;47.790;9.620;2023-04-03T13:38:22;6.60;84.60
19242;DHT22;9755;47.790;9.620;2023-04-03T13:40:50;6.80;84.70
19242;DHT22;9755;47.790;9.620;2023-04-03T13:43:19;7.00;83.00
19242;DHT22;9755;47.790;9.620;2023-04-03T13:46:05;7.20;81.90
19242;DHT22;9755;47.790;9.620;2023-04-03T13:48:40;7.10;80.30
19242;DHT22;9755;47.790;9.620;2023-04-03T13:51:18;6.80;78.60
19242;DHT22;9755;47.790;9.620;2023-04-03T13:53:49;6.80;82.10
19242;DHT22;9755;47.790;9.620;2023-04-03T13:56:21;7.00;78.50
19242;DHT22;9755;47.790;9.620;2023-04-03T13:59:04;7.10;78.70
19242;DHT22;9755;47.790;9.620;2023-04-03T14:01:42;6.80;80.90
19242;DHT22;9755;47.790;9.620;2023-04-03T14:04:14;6.40;83.20
19242;DHT22;9755;47.790;9.620;2023-04-03T14:06:41;6.00;85.50
19242;DHT22;9755;47.790;9.620;2023-04-03T14:09:10;6.10;85.70
19242;DHT22;9755;47.790;9.620;2023-04-03T14:11:39;6.10;85.70
19242;DHT22;9755;47.790;9.620;2023-04-03T14:14:12;6.00;86.20
19242;DHT22;9755;47.790;9.620;2023-04-03T14:16:42;6.20;86.30
19242;DHT22;9755;47.790;9.620;2023-04-03T14:19:18;6.50;84.70
19242;DHT22;9755;47.790;9.620;2023-04-03T14:21:46;6.70;82.50
19242;DHT22;9755;47.790;9.620;2023-04-03T14:24:14;6.90;82.30
19242;DHT22;9755;47.790;9.620;2023-04-03T14:26:42;6.90;81.00
19242;DHT22;9755;47.790;9.620;2023-04-03T14:29:11;7.10;80.80
19242;DHT22;9755;47.790;9.620;2023-04-03T14:31:38;7.20;81.60
19242;DHT22;9755;47.790;9.620;2023-04-03T14:34:05;7.30;78.10
19242;DHT22;9755;47.790;9.620;2023-04-03T14:36:33;7.40;76.10
19242;DHT22;9755;47.790;9.620;2023-04-03T14:39:02;7.20;75.90
19242;DHT22;9755;47.790;9.620;2023-04-03T14:41:31;7.30;75.00
19242;DHT22;9755;47.790;9.620;2023-04-03T14:43:58;7.00;76.80
19242;DHT22;9755;47.790;9.620;2023-04-03T14:46:30;7.00;77.50
19242;DHT22;9755;47.790;9.620;2023-04-03T14:48:58;7.20;78.10
19242;DHT22;9755;47.790;9.620;2023-04-03T14:51:25;7.30;78.50
19242;DHT22;9755;47.790;9.620;2023-04-03T14:53:52;7.30;77.80
19242;DHT22;9755;47.790;9.620;2023-04-03T14:56:23;7.10;79.50
19242;DHT22;9755;47.790;9.620;2023-04-03T14:58:56;7.20;78.50
19242;DHT22;9755;47.790;9.620;2023-04-03T15:01:24;7.10;78.90
19242;DHT22;9755;47.790;9.620;2023-04-03T15:03:51;7.20;77.80
19242;DHT22;9755;47.790;9.620;2023-04-03T15:06:18;6.90;79.10
19242;DHT22;9755;47.790;9.620;2023-04-03T15:08:46;6.90;80.00
19242;DHT22;9755;47.790;9.620;2023-04-03T15:11:14;7.00;80.80
19242;DHT22;9755;47.790;9.620;2023-04-03T15:13:41;6.90;82.20
19242;DHT22;9755;47.790;9.620;2023-04-03T15:16:15;6.50;85.20
19242;DHT22;9755;47.790;9.620;2023-04-03T15:18:43;6.00;88.40
19242;DHT22;9755;47.790;9.620;2023-04-03T15:21:12;6.10;90.00
19242;DHT22;9755;47.790;9.620;2023-04-03T15:23:39;6.00;90.70
19242;DHT22;9755;47.790;9.620;2023-04-03T15:26:06;6.30;89.60
19242;DHT22;9755;47.790;9.620;2023-04-03T15:28:35;6.50;89.10
19242;DHT22;9755;47.790;9.620;2023-04-03T15:31:03;6.50;87.80
19242;DHT22;9755;47.790;9.620;2023-04-03T15:33:32;6.40;87.20
19242;DHT22;9755;47.790;9.620;2023-04-03T15:36:00;6.30;86.90
19242;DHT22;9755;47.790;9.620;2023-04-03T15:38:27;6.30;87.80
19242;DHT22;9755;47.790;9.620;2023-04-03T15:41:24;6.50;87.90
19242;DHT22;9755;47.790;9.620;2023-04-03T15:43:51;6.50;88.20
19242;DHT22;9755;47.790;9.620;2023-04-03T15:46:19;6.30;88.00
19242;DHT22;9755;47.790;9.620;2023-04-03T15:48:47;6.20;89.10
19242;DHT22;9755;47.790;9.620;2023-04-03T15:51:15;6.10;89.80
19242;DHT22;9755;47.790;9.620;2023-04-03T15:53:42;6.10;90.30
19242;DHT22;9755;47.790;9.620;2023-04-03T15:56:09;6.10;89.90
19242;DHT22;9755;47.790;9.620;2023-04-03T15:58:37;6.10;89.20
19242;DHT22;9755;47.790;9.620;2023-04-03T16:01:05;6.10;89.80
19242;DHT22;9755;47.790;9.620;2023-04-03T16:03:32;6.20;89.10
19242;DHT22;9755;47.790;9.620;2023-04-03T16:06:01;6.20;89.10
19242;DHT22;9755;47.790;9.620;2023-04-03T16:08:28;6.10;89.30
19242;DHT22;9755;47.790;9.620;2023-04-03T16:10:55;6.00;90.10
19242;DHT22;9755;47.790;9.620;2023-04-03T16:13:22;5.90;90.40
19242;DHT22;9755;47.790;9.620;2023-04-03T16:15:49;5.90;91.00
19242;DHT22;9755;47.790;9.620;2023-04-03T16:18:16;5.80;90.80
19242;DHT22;9755;47.790;9.620;2023-04-03T16:20:45;5.80;90.70
19242;DHT22;9755;47.790;9.620;2023-04-03T16:23:13;5.80;91.40
19242;DHT22;9755;47.790;9.620;2023-04-03T16:25:40;5.90;91.10
19242;DHT22;9755;47.790;9.620;2023-04-03T16:28:11;5.90;91.00